sensor_id;sensor_type;location;lat;lon;timestamp;pressure;altitude;pressure_sealevel;temperature;humidity
4398;BME280;2213;49.720;7.296;2023-01-28T00:00:18;98914.41;;;2.99;100.00
4398;BME280;2213;49.720;7.296;2023-01-28T00:02:47;98911.81;;;2.99;100.00
4398;BME280;2213;49.720;7.296;2023-01-28T00:05:18;98906.88;;;2.96;100.00
4398;BME280;2213;49.720;7.296;2023-01-28T00:07:49;98908.19;;;2.90;100.00
4398;BME280;2213;49.720;7.296;2023-01-28T00:10:18;98907.03;;;2.94;100.00
4398;BME280;2213;49.720;7.296;2023-01-28T00:12:48;98898.44;;;2.94;100.00
4398;BME280;2213;49.720;7.296;2023-01-28T00:15:19;98899.28;;;2.94;100.00
4398;BME280;2213;49.720;7.296;2023-01-28T00:17:50;98910.88;;;2.89;100.00
4398;BME280;2213;49.720;7.296;2023-01-28T00:20:22;98903.97;;;2.89;100.00
4398;BME280;2213;49.720;7.296;2023-01-28T00:22:51;98909.59;;;2.94;100.00
4398;BME280;2213;49.720;7.296;2023-01-28T00:25:21;98907.13;;;2.93;100.00
4398;BME280;2213;49.720;7.296;2023-01-28T00:27:49;98912.28;;;2.93;100.00
4398;BME280;2213;49.720;7.296;2023-01-28T00:30:20;98909.00;;;2.91;100.00
4398;BME280;2213;49.720;7.296;2023-01-28T00:32:52;98907.25;;;2.91;100.00
4398;BME280;2213;49.720;7.296;2023-01-28T00:35:21;98911.47;;;2.92;100.00
4398;BME280;2213;49.720;7.296;2023-01-28T00:37:51;98905.47;;;2.92;100.00
4398;BME280;2213;49.720;7.296;2023-01-28T00:40:20;98905.25;;;2.95;100.00
4398;BME280;2213;49.720;7.296;2023-01-28T00:42:50;98906.19;;;2.94;100.00
4398;BME280;2213;49.720;7.296;2023-01-28T00:45:21;98916.53;;;2.94;100.00
4398;BME280;2213;49.720;7.296;2023-01-28T00:47:51;98914.19;;;2.91;100.00
4398;BME280;2213;49.720;7.296;2023-01-28T00:50:20;98913.13;;;2.93;100.00
4398;BME280;2213;49.720;7.296;2023-01-28T00:52:50;98914.88;;;2.93;100.00
4398;BME280;2213;49.720;7.296;2023-01-28T00:55:20;98916.88;;;2.89;100.00
4398;BME280;2213;49.720;7.296;2023-01-28T00:57:49;98911.59;;;2.91;100.00
4398;BME280;2213;49.720;7.296;2023-01-28T01:00:21;98915.34;;;2.87;100.00
4398;BME280;2213;49.720;7.296;2023-01-28T01:02:54;98913.47;;;2.89;100.00
4398;BME280;2213;49.720;7.296;2023-01-28T01:05:24;98907.38;;;2.90;100.00
4398;BME280;2213;49.720;7.296;2023-01-28T01:07:54;98910.63;;;2.92;100.00
4398;BME280;2213;49.720;7.296;2023-01-28T01:10:24;98907.38;;;2.90;100.00
4398;BME280;2213;49.720;7.296;2023-01-28T01:12:53;98902.19;;;2.90;100.00
4398;BME280;2213;49.720;7.296;2023-01-28T01:15:24;98908.88;;;2.92;100.00
4398;BME280;2213;49.720;7.296;2023-01-28T01:17:54;98906.44;;;2.91;100.00
4398;BME280;2213;49.720;7.296;2023-01-28T01:20:26;98907.38;;;2.90;100.00
4398;BME280;2213;49.720;7.296;2023-01-28T01:22:56;98909.25;;;2.88;100.00
4398;BME280;2213;49.720;7.296;2023-01-28T01:25:26;98912.78;;;2.87;100.00
4398;BME280;2213;49.720;7.296;2023-01-28T01:27:56;98919.59;;;2.88;100.00
4398;BME280;2213;49.720;7.296;2023-01-28T01:30:28;98914.41;;;2.88;100.00
4398;BME280;2213;49.720;7.296;2023-01-28T01:32:57;98920.38;;;2.88;100.00
4398;BME280;2213;49.720;7.296;2023-01-28T01:35:27;98927.19;;;2.89;100.00
4398;BME280;2213;49.720;7.296;2023-01-28T01:37:57;98922.84;;;2.90;100.00
4398;BME280;2213;49.720;7.296;2023-01-28T01:40:29;98920.28;;;2.90;100.00
4398;BME280;2213;49.720;7.296;2023-01-28T01:42:59;98920.97;;;2.92;100.00
4398;BME280;2213;49.720;7.296;2023-01-28T01:45:33;98924.50;;;2.91;100.00
4398;BME280;2213;49.720;7.296;2023-01-28T01:48:08;98931.53;;;2.89;100.00
4398;BME280;2213;49.720;7.296;2023-01-28T01:50:48;98928.38;;;2.85;100.00
4398;BME280;2213;49.720;7.296;2023-01-28T01:53:24;98924.16;;;2.84;100.00
4398;BME280;2213;49.720;7.296;2023-01-28T01:55:59;98925.09;;;2.83;100.00
4398;BME280;2213;49.720;7.296;2023-01-28T01:58:35;98926.03;;;2.82;100.00
4398;BME280;2213;49.720;7.296;2023-01-28T02:01:09;98925.44;;;2.79;100.00
4398;BME280;2213;49.720;7.296;2023-01-28T02:03:51;98922.75;;;2.80;100.00
4398;BME280;2213;49.720;7.296;2023-01-28T02:06:22;98925.19;;;2.82;100.00
4398;BME280;2213;49.720;7.296;2023-01-28T02:08:53;98923.78;;;2.78;100.00
4398;BME280;2213;49.720;7.296;2023-01-28T02:11:28;98922.25;;;2.75;100.00
4398;BME280;2213;49.720;7.296;2023-01-28T02:14:02;98922.25;;;2.75;100.00
4398;BME280;2213;49.720;7.296;2023-01-28T02:16:35;98923.09;;;2.76;100.00
4398;BME280;2213;49.720;7.296;2023-01-28T02:19:06;98916.28;;;2.75;100.00
4398;BME280;2213;49.720;7.296;2023-01-28T02:22:09;98917.91;;;2.76;100.00
4398;BME280;2213;49.720;7.296;2023-01-28T02:25:03;98922.25;;;2.75;100.00
4398;BME280;2213;49.720;7.296;2023-01-28T02:28:09;98923.09;;;2.76;100.00
4398;BME280;2213;49.720;7.296;2023-01-28T02:30:49;98928.94;;;2.78;100.00
4398;BME280;2213;49.720;7.296;2023-01-28T02:33:28;98928.94;;;2.78;100.00
4398;BME280;2213;49.720;7.296;2023-01-28T02:36:15;98935.75;;;2.79;100.00
4398;BME280;2213;49.720;7.296;2023-01-28T02:38:49;98917.91;;;2.76;100.00
4398;BME280;2213;49.720;7.296;2023-01-28T02:41:27;98926.50;;;2.76;100.00
4398;BME280;2213;49.720;7.296;2023-01-28T02:44:01;98928.94;;;2.78;100.00
4398;BME280;2213;49.720;7.296;2023-01-28T02:46:36;98927.09;;;2.80;100.00
4398;BME280;2213;49.720;7.296;2023-01-28T02:49:27;98923.44;;;2.82;100.00
4398;BME280;2213;49.720;7.296;2023-01-28T02:52:17;98937.28;;;2.81;100.00
4398;BME280;2213;49.720;7.296;2023-01-28T02:55:17;98931.53;;;2.78;100.00
4398;BME280;2213;49.720;7.296;2023-01-28T02:58:00;98940.09;;;2.78;100.00
4398;BME280;2213;49.720;7.296;2023-01-28T03:00:45;98931.41;;;2.79;100.00
4398;BME280;2213;49.720;7.296;2023-01-28T03:03:25;98939.28;;;2.78;100.00
4398;BME280;2213;49.720;7.296;2023-01-28T03:06:00;98942.56;;;2.80;100.00
4398;BME280;2213;49.720;7.296;2023-01-28T03:08:44;98937.41;;;2.80;100.00
4398;BME280;2213;49.720;7.296;2023-01-28T03:11:35;98941.66;;;2.81;100.00
4398;BME280;2213;49.720;7.296;2023-01-28T03:14:25;98940.94;;;2.79;100.00
4398;BME280;2213;49.720;7.296;2023-01-28T03:17:20;98939.28;;;2.78;100.00
4398;BME280;2213;49.720;7.296;2023-01-28T03:20:11;98944.44;;;2.78;100.00
4398;BME280;2213;49.720;7.296;2023-01-28T03:23:06;98935.31;;;2.74;100.00
4398;BME280;2213;49.720;7.296;2023-01-28T03:26:00;98948.22;;;2.74;100.00
4398;BME280;2213;49.720;7.296;2023-01-28T03:28:51;98941.16;;;2.76;100.00
4398;BME280;2213;49.720;7.296;2023-01-28T03:31:40;98947.16;;;2.76;100.00
4398;BME280;2213;49.720;7.296;2023-01-28T03:34:30;98944.44;;;2.78;100.00
4398;BME280;2213;49.720;7.296;2023-01-28T03:37:17;98949.16;;;2.73;100.00
4398;BME280;2213;49.720;7.296;2023-01-28T03:39:46;98954.31;;;2.73;100.00
4398;BME280;2213;49.720;7.296;2023-01-28T03:42:16;98951.81;;;2.71;100.00
4398;BME280;2213;49.720;7.296;2023-01-28T03:44:46;98952.66;;;2.72;100.00
4398;BME280;2213;49.720;7.296;2023-01-28T03:47:23;98957.81;;;2.72;100.00
4398;BME280;2213;49.720;7.296;2023-01-28T03:49:56;98962.88;;;2.73;100.00
4398;BME280;2213;49.720;7.296;2023-01-28T03:52:30;98961.47;;;2.69;100.00
4398;BME280;2213;49.720;7.296;2023-01-28T03:54:59;98968.28;;;2.70;100.00
4398;BME280;2213;49.720;7.296;2023-01-28T03:57:40;98974.81;;;2.74;100.00
4398;BME280;2213;49.720;7.296;2023-01-28T04:00:17;98976.38;;;2.77;100.00
4398;BME280;2213;49.720;7.296;2023-01-28T04:02:46;98984.38;;;2.74;100.00
4398;BME280;2213;49.720;7.296;2023-01-28T04:05:19;98985.28;;;2.73;100.00
4398;BME280;2213;49.720;7.296;2023-01-28T04:07:50;98986.44;;;2.69;100.00
4398;BME280;2213;49.720;7.296;2023-01-28T04:10:23;98984.78;;;2.68;100.00
4398;BME280;2213;49.720;7.296;2023-01-28T04:12:52;98988.19;;;2.68;100.00
4398;BME280;2213;49.720;7.296;2023-01-28T04:15:21;98988.56;;;2.64;100.00
4398;BME280;2213;49.720;7.296;2023-01-28T04:17:50;98989.16;;;2.67;100.00
4398;BME280;2213;49.720;7.296;2023-01-28T04:20:21;98986.69;;;2.66;100.00
4398;BME280;2213;49.720;7.296;2023-01-28T04:22:51;98988.34;;;2.67;100.00
4398;BME280;2213;49.720;7.296;2023-01-28T04:25:21;98993.50;;;2.67;100.00
4398;BME280;2213;49.720;7.296;2023-01-28T04:27:52;98988.66;;;2.62;100.00
4398;BME280;2213;49.720;7.296;2023-01-28T04:30:21;98987.00;;;2.61;100.00
4398;BME280;2213;49.720;7.296;2023-01-28T04:32:52;98988.34;;;2.67;100.00
4398;BME280;2213;49.720;7.296;2023-01-28T04:35:24;98993.72;;;2.64;100.00
4398;BME280;2213;49.720;7.296;2023-01-28T04:37:53;98996.09;;;2.67;100.00
4398;BME280;2213;49.720;7.296;2023-01-28T04:40:24;98991.84;;;2.66;100.00
4398;BME280;2213;49.720;7.296;2023-01-28T04:42:54;98993.72;;;2.64;100.00
4398;BME280;2213;49.720;7.296;2023-01-28T04:45:26;98992.31;;;2.60;100.00
4398;BME280;2213;49.720;7.296;2023-01-28T04:47:56;98995.59;;;2.62;100.00
4398;BME280;2213;49.720;7.296;2023-01-28T04:50:27;98997.84;;;2.66;100.00
4398;BME280;2213;49.720;7.296;2023-01-28T04:52:58;99000.66;;;2.63;100.00
4398;BME280;2213;49.720;7.296;2023-01-28T04:55:28;99002.41;;;2.63;100.00
4398;BME280;2213;49.720;7.296;2023-01-28T04:57:59;98993.13;;;2.60;100.00
4398;BME280;2213;49.720;7.296;2023-01-28T05:00:29;99006.03;;;2.60;100.00
4398;BME280;2213;49.720;7.296;2023-01-28T05:02:59;99009.31;;;2.62;100.00
4398;BME280;2213;49.720;7.296;2023-01-28T05:05:30;99009.41;;;2.61;100.00
4398;BME280;2213;49.720;7.296;2023-01-28T05:08:00;99014.00;;;2.57;100.00
4398;BME280;2213;49.720;7.296;2023-01-28T05:10:30;99013.38;;;2.53;100.00
4398;BME280;2213;49.720;7.296;2023-01-28T05:13:00;99024.53;;;2.54;100.00
4398;BME280;2213;49.720;7.296;2023-01-28T05:15:31;99020.94;;;2.57;100.00
4398;BME280;2213;49.720;7.296;2023-01-28T05:18:00;99023.72;;;2.53;100.00
4398;BME280;2213;49.720;7.296;2023-01-28T05:20:32;99030.53;;;2.54;100.00
4398;BME280;2213;49.720;7.296;2023-01-28T05:23:02;99033.84;;;2.57;100.00
4398;BME280;2213;49.720;7.296;2023-01-28T05:25:33;99033.63;;;2.60;100.00
4398;BME280;2213;49.720;7.296;2023-01-28T05:28:02;99030.06;;;2.61;100.00
4398;BME280;2213;49.720;7.296;2023-01-28T05:30:32;99031.13;;;2.58;100.00
4398;BME280;2213;49.720;7.296;2023-01-28T05:33:02;99041.22;;;2.61;100.00
4398;BME280;2213;49.720;7.296;2023-01-28T05:35:33;99035.38;;;2.59;100.00
4398;BME280;2213;49.720;7.296;2023-01-28T05:38:05;99031.97;;;2.59;100.00
4398;BME280;2213;49.720;7.296;2023-01-28T05:40:35;99032.19;;;2.56;100.00
4398;BME280;2213;49.720;7.296;2023-01-28T05:43:05;99032.63;;;2.49;100.00
4398;BME280;2213;49.720;7.296;2023-01-28T05:45:35;99035.81;;;2.53;100.00
4398;BME280;2213;49.720;7.296;2023-01-28T05:48:05;99034.50;;;2.47;100.00
4398;BME280;2213;49.720;7.296;2023-01-28T05:50:36;99049.16;;;2.47;100.00
4398;BME280;2213;49.720;7.296;2023-01-28T05:53:07;99048.13;;;2.49;100.00
4398;BME280;2213;49.720;7.296;2023-01-28T05:55:37;99047.63;;;2.44;100.00
4398;BME280;2213;49.720;7.296;2023-01-28T05:58:06;99044.00;;;2.47;100.00
4398;BME280;2213;49.720;7.296;2023-01-28T06:00:36;99052.47;;;2.49;100.00
4398;BME280;2213;49.720;7.296;2023-01-28T06:03:05;99049.75;;;2.50;100.00
4398;BME280;2213;49.720;7.296;2023-01-28T06:05:36;99048.13;;;2.49;100.00
4398;BME280;2213;49.720;7.296;2023-01-28T06:08:06;99053.47;;;2.46;100.00
4398;BME280;2213;49.720;7.296;2023-01-28T06:10:35;99054.75;;;2.41;100.00
4398;BME280;2213;49.720;7.296;2023-01-28T06:13:04;99058.28;;;2.40;100.00
4398;BME280;2213;49.720;7.296;2023-01-28T06:15:33;99063.34;;;2.41;100.00
4398;BME280;2213;49.720;7.296;2023-01-28T06:18:03;99066.22;;;2.37;100.00
4398;BME280;2213;49.720;7.296;2023-01-28T06:20:32;99060.38;;;2.35;100.00
4398;BME280;2213;49.720;7.296;2023-01-28T06:23:04;99073.88;;;2.38;100.00
4398;BME280;2213;49.720;7.296;2023-01-28T06:25:33;99063.78;;;2.35;100.00
4398;BME280;2213;49.720;7.296;2023-01-28T06:28:04;99065.75;;;2.32;100.00
4398;BME280;2213;49.720;7.296;2023-01-28T06:30:35;99072.44;;;2.34;100.00
4398;BME280;2213;49.720;7.296;2023-01-28T06:33:05;99077.72;;;2.33;100.00
4398;BME280;2213;49.720;7.296;2023-01-28T06:35:36;99087.84;;;2.36;100.00
4398;BME280;2213;49.720;7.296;2023-01-28T06:38:07;99081.63;;;2.38;100.00
4398;BME280;2213;49.720;7.296;2023-01-28T06:40:36;99082.78;;;2.34;100.00
4398;BME280;2213;49.720;7.296;2023-01-28T06:43:06;99083.38;;;2.38;100.00
4398;BME280;2213;49.720;7.296;2023-01-28T06:45:36;99073.28;;;2.35;100.00
4398;BME280;2213;49.720;7.296;2023-01-28T06:48:07;99088.63;;;2.36;100.00
4398;BME280;2213;49.720;7.296;2023-01-28T06:50:36;99085.97;;;2.38;100.00
4398;BME280;2213;49.720;7.296;2023-01-28T06:53:07;99087.00;;;2.35;100.00
4398;BME280;2213;49.720;7.296;2023-01-28T06:55:36;99086.28;;;2.33;100.00
4398;BME280;2213;49.720;7.296;2023-01-28T06:58:05;99088.03;;;2.33;100.00
4398;BME280;2213;49.720;7.296;2023-01-28T07:00:35;99095.75;;;2.33;100.00
4398;BME280;2213;49.720;7.296;2023-01-28T07:03:05;99108.66;;;2.33;100.00
4398;BME280;2213;49.720;7.296;2023-01-28T07:05:34;99093.19;;;2.33;100.00
4398;BME280;2213;49.720;7.296;2023-01-28T07:08:05;99086.28;;;2.33;100.00
4398;BME280;2213;49.720;7.296;2023-01-28T07:10:35;99089.81;;;2.32;100.00
4398;BME280;2213;49.720;7.296;2023-01-28T07:13:06;99094.16;;;2.32;100.00
4398;BME280;2213;49.720;7.296;2023-01-28T07:15:37;99093.53;;;2.28;100.00
4398;BME280;2213;49.720;7.296;2023-01-28T07:18:06;99095.16;;;2.29;100.00
4398;BME280;2213;49.720;7.296;2023-01-28T07:20:36;99102.72;;;2.32;100.00
4398;BME280;2213;49.720;7.296;2023-01-28T07:23:09;99101.88;;;2.32;100.00
4398;BME280;2213;49.720;7.296;2023-01-28T07:25:39;99096.81;;;2.30;100.00
4398;BME280;2213;49.720;7.296;2023-01-28T07:28:09;99101.06;;;2.31;100.00
4398;BME280;2213;49.720;7.296;2023-01-28T07:30:39;99110.56;;;2.31;100.00
4398;BME280;2213;49.720;7.296;2023-01-28T07:33:09;99111.97;;;2.35;100.00
4398;BME280;2213;49.720;7.296;2023-01-28T07:35:39;99116.53;;;2.31;100.00
4398;BME280;2213;49.720;7.296;2023-01-28T07:38:09;99119.22;;;2.30;100.00
4398;BME280;2213;49.720;7.296;2023-01-28T07:40:39;99119.00;;;2.33;100.00
4398;BME280;2213;49.720;7.296;2023-01-28T07:43:09;99121.47;;;2.34;100.00
4398;BME280;2213;49.720;7.296;2023-01-28T07:45:39;99125.09;;;2.32;100.00
4398;BME280;2213;49.720;7.296;2023-01-28T07:48:11;99125.19;;;2.30;100.00
4398;BME280;2213;49.720;7.296;2023-01-28T07:50:41;99120.16;;;2.29;100.00
4398;BME280;2213;49.720;7.296;2023-01-28T07:53:11;99114.66;;;2.33;100.00
4398;BME280;2213;49.720;7.296;2023-01-28T07:55:40;99114.06;;;2.30;100.00
4398;BME280;2213;49.720;7.296;2023-01-28T07:58:11;99121.78;;;2.30;100.00
4398;BME280;2213;49.720;7.296;2023-01-28T08:00:42;99117.59;;;2.29;100.00
4398;BME280;2213;49.720;7.296;2023-01-28T08:03:14;99119.44;;;2.27;100.00
4398;BME280;2213;49.720;7.296;2023-01-28T08:05:46;99127.09;;;2.28;100.00
4398;BME280;2213;49.720;7.296;2023-01-28T08:08:17;99134.69;;;2.30;100.00
4398;BME280;2213;49.720;7.296;2023-01-28T08:10:47;99129.06;;;2.25;100.00
4398;BME280;2213;49.720;7.296;2023-01-28T08:13:17;99117.91;;;2.24;100.00
4398;BME280;2213;49.720;7.296;2023-01-28T08:15:47;99116.97;;;2.25;100.00
4398;BME280;2213;49.720;7.296;2023-01-28T08:18:17;99121.91;;;2.28;100.00
4398;BME280;2213;49.720;7.296;2023-01-28T08:20:48;99125.94;;;2.32;100.00
4398;BME280;2213;49.720;7.296;2023-01-28T08:23:20;99127.47;;;2.35;100.00
4398;BME280;2213;49.720;7.296;2023-01-28T08:25:52;99124.97;;;2.33;100.00
4398;BME280;2213;49.720;7.296;2023-01-28T08:28:21;99132.94;;;2.30;100.00
4398;BME280;2213;49.720;7.296;2023-01-28T08:30:50;99128.72;;;2.29;100.00
4398;BME280;2213;49.720;7.296;2023-01-28T08:33:20;99130.88;;;2.35;100.00
4398;BME280;2213;49.720;7.296;2023-01-28T08:35:50;99130.75;;;2.37;100.00
4398;BME280;2213;49.720;7.296;2023-01-28T08:38:21;99129.22;;;2.34;100.00
4398;BME280;2213;49.720;7.296;2023-01-28T08:40:50;99134.06;;;2.39;100.00
4398;BME280;2213;49.720;7.296;2023-01-28T08:43:23;99139.84;;;2.42;100.00
4398;BME280;2213;49.720;7.296;2023-01-28T08:45:52;99137.13;;;2.44;100.00
4398;BME280;2213;49.720;7.296;2023-01-28T08:48:22;99128.25;;;2.48;100.00
4398;BME280;2213;49.720;7.296;2023-01-28T08:50:51;99141.84;;;2.50;100.00
4398;BME280;2213;49.720;7.296;2023-01-28T08:53:23;99146.09;;;2.51;100.00
4398;BME280;2213;49.720;7.296;2023-01-28T08:55:53;99139.88;;;2.53;100.00
4398;BME280;2213;49.720;7.296;2023-01-28T08:58:23;99150.19;;;2.53;100.00
4398;BME280;2213;49.720;7.296;2023-01-28T09:00:53;99157.00;;;2.54;100.00
4398;BME280;2213;49.720;7.296;2023-01-28T09:03:22;99150.00;;;2.57;100.00
4398;BME280;2213;49.720;7.296;2023-01-28T09:05:52;99159.38;;;2.58;100.00
4398;BME280;2213;49.720;7.296;2023-01-28T09:08:24;99161.94;;;2.58;100.00
4398;BME280;2213;49.720;7.296;2023-01-28T09:10:55;99149.78;;;2.60;100.00
4398;BME280;2213;49.720;7.296;2023-01-28T09:13:25;99151.31;;;2.62;100.00
4398;BME280;2213;49.720;7.296;2023-01-28T09:15:55;99155.16;;;2.57;100.00
4398;BME280;2213;49.720;7.296;2023-01-28T09:18:25;99154.00;;;2.61;100.00
4398;BME280;2213;49.720;7.296;2023-01-28T09:20:55;99152.97;;;2.63;100.00
4398;BME280;2213;49.720;7.296;2023-01-28T09:23:26;99156.25;;;2.65;100.00
4398;BME280;2213;49.720;7.296;2023-01-28T09:26:00;99150.47;;;2.62;100.00
4398;BME280;2213;49.720;7.296;2023-01-28T09:28:30;99159.88;;;2.63;100.00
4398;BME280;2213;49.720;7.296;2023-01-28T09:31:04;99161.63;;;2.62;100.00
4398;BME280;2213;49.720;7.296;2023-01-28T09:33:37;99162.34;;;2.64;100.00
4398;BME280;2213;49.720;7.296;2023-01-28T09:36:09;99161.19;;;2.68;100.00
4398;BME280;2213;49.720;7.296;2023-01-28T09:38:41;99166.13;;;2.71;100.00
4398;BME280;2213;49.720;7.296;2023-01-28T09:41:24;99170.50;;;2.71;100.00
4398;BME280;2213;49.720;7.296;2023-01-28T09:44:07;99167.19;;;2.69;100.00
4398;BME280;2213;49.720;7.296;2023-01-28T09:46:39;99166.13;;;2.71;100.00
4398;BME280;2213;49.720;7.296;2023-01-28T09:49:19;99165.19;;;2.72;100.00
4398;BME280;2213;49.720;7.296;2023-01-28T09:51:53;99168.72;;;2.71;100.00
4398;BME280;2213;49.720;7.296;2023-01-28T09:54:33;99178.13;;;2.72;100.00
4398;BME280;2213;49.720;7.296;2023-01-28T09:57:12;99176.13;;;2.76;100.00
4398;BME280;2213;49.720;7.296;2023-01-28T09:59:43;99178.28;;;2.82;100.00
4398;BME280;2213;49.720;7.296;2023-01-28T10:02:30;99178.03;;;2.85;100.00
4398;BME280;2213;49.720;7.296;2023-01-28T10:05:19;99184.66;;;2.89;100.00
4398;BME280;2213;49.720;7.296;2023-01-28T10:08:06;99179.16;;;2.93;100.00
4398;BME280;2213;49.720;7.296;2023-01-28T10:10:47;99186.75;;;2.84;100.00
4398;BME280;2213;49.720;7.296;2023-01-28T10:13:27;99184.25;;;2.82;100.00
4398;BME280;2213;49.720;7.296;2023-01-28T10:16:27;99177.63;;;2.91;100.00
4398;BME280;2213;49.720;7.296;2023-01-28T10:19:05;99177.03;;;2.87;100.00
4398;BME280;2213;49.720;7.296;2023-01-28T10:21:41;99190.03;;;2.86;100.00
4398;BME280;2213;49.720;7.296;2023-01-28T10:24:17;99191.78;;;2.85;100.00
4398;BME280;2213;49.720;7.296;2023-01-28T10:26:53;99183.44;;;2.82;100.00
4398;BME280;2213;49.720;7.296;2023-01-28T10:29:28;99189.81;;;2.89;100.00
4398;BME280;2213;49.720;7.296;2023-01-28T10:32:01;99183.50;;;2.93;100.00
4398;BME280;2213;49.720;7.296;2023-01-28T10:34:34;99186.91;;;2.93;100.00
4398;BME280;2213;49.720;7.296;2023-01-28T10:37:03;99191.16;;;2.94;100.00
4398;BME280;2213;49.720;7.296;2023-01-28T10:39:33;99197.13;;;2.95;100.00
4398;BME280;2213;49.720;7.296;2023-01-28T10:42:21;99194.66;;;2.93;100.00
4398;BME280;2213;49.720;7.296;2023-01-28T10:44:59;99201.56;;;2.93;100.00
4398;BME280;2213;49.720;7.296;2023-01-28T10:47:38;99193.81;;;2.93;100.00
4398;BME280;2213;49.720;7.296;2023-01-28T10:50:19;99182.34;;;2.97;100.00
4398;BME280;2213;49.720;7.296;2023-01-28T10:52:54;99182.13;;;3.00;100.00
4398;BME280;2213;49.720;7.296;2023-01-28T10:55:26;99176.13;;;2.99;100.00
4398;BME280;2213;49.720;7.296;2023-01-28T10:58:01;99183.03;;;2.99;100.00
4398;BME280;2213;49.720;7.296;2023-01-28T11:00:36;99182.38;;;3.08;100.00
4398;BME280;2213;49.720;7.296;2023-01-28T11:03:17;99182.25;;;3.10;100.00
4398;BME280;2213;49.720;7.296;2023-01-28T11:05:51;99188.03;;;3.13;100.00
4398;BME280;2213;49.720;7.296;2023-01-28T11:08:25;99184.41;;;3.16;100.00
4398;BME280;2213;49.720;7.296;2023-01-28T11:10:56;99190.19;;;3.19;100.00
4398;BME280;2213;49.720;7.296;2023-01-28T11:13:28;99179.94;;;3.18;100.00
4398;BME280;2213;49.720;7.296;2023-01-28T11:16:03;99190.88;;;3.21;100.00
4398;BME280;2213;49.720;7.296;2023-01-28T11:18:39;99188.06;;;3.24;100.00
4398;BME280;2213;49.720;7.296;2023-01-28T11:21:18;99181.06;;;3.26;100.00
4398;BME280;2213;49.720;7.296;2023-01-28T11:23:52;99190.44;;;3.27;100.00
4398;BME280;2213;49.720;7.296;2023-01-28T11:26:29;99178.66;;;3.23;100.00
4398;BME280;2213;49.720;7.296;2023-01-28T11:29:02;99189.13;;;3.22;100.00
4398;BME280;2213;49.720;7.296;2023-01-28T11:31:41;99195.81;;;3.24;100.00
4398;BME280;2213;49.720;7.296;2023-01-28T11:34:16;99184.56;;;3.25;100.00
4398;BME280;2213;49.720;7.296;2023-01-28T11:36:54;99186.31;;;3.25;100.00
4398;BME280;2213;49.720;7.296;2023-01-28T11:39:29;99179.50;;;3.24;100.00
4398;BME280;2213;49.720;7.296;2023-01-28T11:42:12;99171.50;;;3.27;100.00
4398;BME280;2213;49.720;7.296;2023-01-28T11:44:45;99164.81;;;3.24;100.00
4398;BME280;2213;49.720;7.296;2023-01-28T11:47:37;99175.97;;;3.25;100.00
4398;BME280;2213;49.720;7.296;2023-01-28T11:50:23;99179.63;;;3.22;100.00
4398;BME280;2213;49.720;7.296;2023-01-28T11:53:09;99165.97;;;3.20;100.00
4398;BME280;2213;49.720;7.296;2023-01-28T11:55:58;99165.88;;;3.22;100.00
4398;BME280;2213;49.720;7.296;2023-01-28T11:58:47;99163.75;;;3.27;100.00
4398;BME280;2213;49.720;7.296;2023-01-28T12:01:33;99171.28;;;3.30;100.00
4398;BME280;2213;49.720;7.296;2023-01-28T12:04:33;99167.91;;;3.29;100.00
4398;BME280;2213;49.720;7.296;2023-01-28T12:07:29;99169.28;;;3.33;100.00
4398;BME280;2213;49.720;7.296;2023-01-28T12:10:11;99165.09;;;3.32;100.00
4398;BME280;2213;49.720;7.296;2023-01-28T12:13:03;99160.59;;;3.34;100.00
4398;BME280;2213;49.720;7.296;2023-01-28T12:16:11;99162.50;;;3.32;100.00
4398;BME280;2213;49.720;7.296;2023-01-28T12:22:11;99166.59;;;3.35;100.00
4398;BME280;2213;49.720;7.296;2023-01-28T12:27:53;99163.16;;;3.23;100.00
4398;BME280;2213;49.720;7.296;2023-01-28T12:30:42;99153.88;;;3.21;100.00
4398;BME280;2213;49.720;7.296;2023-01-28T12:33:44;99161.97;;;3.16;100.00
4398;BME280;2213;49.720;7.296;2023-01-28T12:36:43;99162.66;;;3.07;100.00
4398;BME280;2213;49.720;7.296;2023-01-28T12:39:31;99158.31;;;3.08;100.00
4398;BME280;2213;49.720;7.296;2023-01-28T12:42:11;99153.97;;;3.08;100.00
4398;BME280;2213;49.720;7.296;2023-01-28T12:44:50;99150.88;;;3.03;100.00
4398;BME280;2213;49.720;7.296;2023-01-28T12:47:27;99147.59;;;3.01;100.00
4398;BME280;2213;49.720;7.296;2023-01-28T12:50:09;99147.97;;;3.08;100.00
4398;BME280;2213;49.720;7.296;2023-01-28T12:52:51;99157.38;;;3.09;100.00
4398;BME280;2213;49.720;7.296;2023-01-28T12:55:38;99157.03;;;3.13;100.00
4398;BME280;2213;49.720;7.296;2023-01-28T12:58:17;99152.69;;;3.14;100.00
4398;BME280;2213;49.720;7.296;2023-01-28T13:00:55;99142.47;;;3.12;100.00
4398;BME280;2213;49.720;7.296;2023-01-28T13:03:35;99153.22;;;2.95;100.00
4398;BME280;2213;49.720;7.296;2023-01-28T13:06:11;99150.66;;;2.95;100.00
4398;BME280;2213;49.720;7.296;2023-01-28T13:08:44;99152.16;;;2.97;100.00
4398;BME280;2213;49.720;7.296;2023-01-28T13:11:16;99156.28;;;3.00;100.00
4398;BME280;2213;49.720;7.296;2023-01-28T13:13:47;99154.97;;;2.94;100.00
4398;BME280;2213;49.720;7.296;2023-01-28T13:16:17;99159.19;;;2.95;100.00
4398;BME280;2213;49.720;7.296;2023-01-28T13:19:20;99166.84;;;2.97;100.00
4398;BME280;2213;49.720;7.296;2023-01-28T13:21:49;99167.44;;;3.00;100.00
4398;BME280;2213;49.720;7.296;2023-01-28T13:24:30;99163.09;;;3.01;100.00
4398;BME280;2213;49.720;7.296;2023-01-28T13:27:24;99170.84;;;3.01;100.00
4398;BME280;2213;49.720;7.296;2023-01-28T13:30:21;99169.09;;;3.01;100.00
4398;BME280;2213;49.720;7.296;2023-01-28T13:33:03;99176.13;;;2.99;100.00
4398;BME280;2213;49.720;7.296;2023-01-28T13:35:36;99175.19;;;3.00;100.00
4398;BME280;2213;49.720;7.296;2023-01-28T13:38:13;99194.09;;;3.01;100.00
4398;BME280;2213;49.720;7.296;2023-01-28T13:40:55;99191.84;;;2.96;100.00
4398;BME280;2213;49.720;7.296;2023-01-28T13:43:35;99196.09;;;2.97;100.00
4398;BME280;2213;49.720;7.296;2023-01-28T13:46:08;99201.94;;;2.99;100.00
4398;BME280;2213;49.720;7.296;2023-01-28T13:48:44;99199.13;;;2.91;100.00
4398;BME280;2213;49.720;7.296;2023-01-28T13:51:21;99202.72;;;2.89;100.00
4398;BME280;2213;49.720;7.296;2023-01-28T13:53:58;99203.69;;;2.88;100.00
4398;BME280;2213;49.720;7.296;2023-01-28T13:56:40;99201.41;;;2.83;100.00
4398;BME280;2213;49.720;7.296;2023-01-28T13:59:39;99200.81;;;2.80;100.00
4398;BME280;2213;49.720;7.296;2023-01-28T14:02:36;99200.81;;;2.80;100.00
4398;BME280;2213;49.720;7.296;2023-01-28T14:06:05;99201.34;;;2.72;100.00
4398;BME280;2213;49.720;7.296;2023-01-28T14:09:15;99213.44;;;2.72;100.00
4398;BME280;2213;49.720;7.296;2023-01-28T14:16:04;99212.91;;;2.79;100.00